PWSweather.com
Personal Weather Stations
Station Observations
46800
XativaES 46800

XativaES 46800

Lat: 38.9917502, Lon: -0.5136488000000554

Elevation: 103

Station Type: Davis Vantage Pro2 Aspirated

http://www.meteoxativa.es/

Latest ConditionsUpdated 10:00:01 AM GMT+01:01 Friday, Feb 22, 2019
Currently Today's Max Today's Min Today's Average
Temperature 50.4°F10.2°C 50.4°F10.2°C 40.9°F4.9°C 43.1°F6.2°C
Dew Point 40.2°F4.6°C 41.4°F5.2°C 37.1°F2.8°C 38.7°F3.7°C
Winds Calm Calm 1.2 mph -1.9 kmh - - 0.1 mph 0.2 kmh
Wind Gusts -- 2.3 mph3.7 kmh - -
Humidity 68% 87% 68% 84%
Pressure 30.48 in1032.2 mb 30.50 in1032.8 mb 30.46 in1031.5 mb -
Hour Temp Dew Point Humidity Winds Wind Gusts Pressure Precip Precip Rate Daily Precip Total
10:00 AM 50.4°F10.2°C 40.2°F4.6°C 68% Calm Calm -- 30.48 in1032.2 mb - 0.00 in0.0 mm 0.00 in0.0 mm
09:45 AM 49.1°F9.5°C 40.5°F4.7°C 72% 1.2 mph E1.9 kmh E 2.3 mph3.7 kmh 30.48 in1032.2 mb - 0.00 in0.0 mm 0.00 in0.0 mm
09:30 AM 46.8°F8.2°C 40.3°F4.6°C 78% Calm Calm 1.2 mph1.9 kmh 30.48 in1032.2 mb - 0.00 in0.0 mm 0.00 in0.0 mm
09:15 AM 44.4°F6.9°C 39.5°F4.2°C 83% Calm Calm -- 30.48 in1032.2 mb - 0.00 in0.0 mm 0.00 in0.0 mm
09:00 AM 42.9°F6.1°C 38.4°F3.6°C 84% Calm Calm -- 30.48 in1032.2 mb - 0.00 in0.0 mm 0.00 in0.0 mm
08:45 AM 42.1°F5.6°C 38.3°F3.5°C 86% Calm Calm 2.3 mph3.7 kmh 30.48 in1032.2 mb - 0.00 in0.0 mm 0.00 in0.0 mm
08:30 AM 41.4°F5.2°C 37.6°F3.1°C 86% Calm Calm -- 30.47 in1031.8 mb - 0.00 in0.0 mm 0.00 in0.0 mm
08:15 AM 41.4°F5.2°C 37.6°F3.1°C 86% Calm Calm -- 30.47 in1031.8 mb - 0.00 in0.0 mm 0.00 in0.0 mm
08:00 AM 41.6°F5.3°C 37.7°F3.2°C 86% Calm Calm 1.2 mph1.9 kmh 30.46 in1031.5 mb - 0.00 in0.0 mm 0.00 in0.0 mm
07:45 AM 41.6°F5.3°C 37.8°F3.2°C 86% Calm Calm -- 30.46 in1031.5 mb - 0.00 in0.0 mm 0.00 in0.0 mm
07:30 AM 41.4°F5.2°C 37.5°F3.1°C 86% Calm Calm -- 30.47 in1031.8 mb - 0.00 in0.0 mm 0.00 in0.0 mm
07:15 AM 41.2°F5.1°C 37.4°F3.0°C 86% Calm Calm -- 30.46 in1031.5 mb - 0.00 in0.0 mm 0.00 in0.0 mm
07:00 AM 41.4°F5.2°C 37.3°F2.9°C 85% Calm Calm -- 30.47 in1031.8 mb - 0.00 in0.0 mm 0.00 in0.0 mm
06:45 AM 41.9°F5.5°C 38.0°F3.3°C 86% Calm Calm 1.2 mph1.9 kmh 30.47 in1031.8 mb - 0.00 in0.0 mm 0.00 in0.0 mm
06:30 AM 41.2°F5.1°C 37.3°F2.9°C 86% Calm Calm -- 30.47 in1031.8 mb - 0.00 in0.0 mm 0.00 in0.0 mm
06:15 AM 40.9°F4.9°C 37.1°F2.8°C 86% Calm Calm -- 30.48 in1032.2 mb - 0.00 in0.0 mm 0.00 in0.0 mm
06:00 AM 41.2°F5.1°C 37.4°F3.0°C 86% Calm Calm -- 30.47 in1031.8 mb - 0.00 in0.0 mm 0.00 in0.0 mm
05:45 AM 41.3°F5.2°C 37.5°F3.1°C 86% Calm Calm -- 30.47 in1031.8 mb - 0.00 in0.0 mm 0.00 in0.0 mm
05:30 AM 41.6°F5.3°C 37.8°F3.2°C 86% Calm Calm -- 30.47 in1031.8 mb - 0.00 in0.0 mm 0.00 in0.0 mm
05:15 AM 41.9°F5.5°C 38.4°F3.6°C 87% Calm Calm -- 30.48 in1032.2 mb - 0.00 in0.0 mm 0.00 in0.0 mm
05:00 AM 42.1°F5.6°C 38.3°F3.5°C 86% Calm Calm -- 30.48 in1032.2 mb - 0.00 in0.0 mm 0.00 in0.0 mm
04:45 AM 42.2°F5.7°C 38.4°F3.6°C 86% Calm Calm -- 30.48 in1032.2 mb - 0.00 in0.0 mm 0.00 in0.0 mm
04:30 AM 42.3°F5.7°C 38.5°F3.6°C 86% Calm Calm -- 30.48 in1032.2 mb - 0.00 in0.0 mm 0.00 in0.0 mm
04:15 AM 42.3°F5.7°C 38.5°F3.6°C 86% Calm Calm -- 30.48 in1032.2 mb - 0.00 in0.0 mm 0.00 in0.0 mm
04:00 AM 42.4°F5.8°C 38.2°F3.4°C 85% Calm Calm -- 30.48 in1032.2 mb - 0.00 in0.0 mm 0.00 in0.0 mm
03:45 AM 42.3°F5.7°C 38.2°F3.4°C 85% Calm Calm -- 30.48 in1032.2 mb - 0.00 in0.0 mm 0.00 in0.0 mm
03:30 AM 42.6°F5.9°C 38.4°F3.6°C 85% Calm Calm -- 30.48 in1032.2 mb - 0.00 in0.0 mm 0.00 in0.0 mm
03:15 AM 42.2°F5.7°C 38.1°F3.4°C 85% Calm Calm -- 30.48 in1032.2 mb - 0.00 in0.0 mm 0.00 in0.0 mm
03:00 AM 42.4°F5.8°C 37.9°F3.3°C 84% Calm Calm -- 30.48 in1032.2 mb - 0.00 in0.0 mm 0.00 in0.0 mm
02:45 AM 43.1°F6.2°C 38.9°F3.8°C 85% 1.2 mph SSW1.9 kmh SSW 2.3 mph3.7 kmh 30.48 in1032.2 mb - 0.00 in0.0 mm 0.00 in0.0 mm
02:30 AM 43.6°F6.4°C 39.7°F4.3°C 86% Calm Calm -- 30.48 in1032.2 mb - 0.00 in0.0 mm 0.00 in0.0 mm
02:15 AM 43.5°F6.4°C 39.6°F4.2°C 86% Calm Calm 1.2 mph1.9 kmh 30.48 in1032.2 mb - 0.00 in0.0 mm 0.00 in0.0 mm
02:00 AM 43.3°F6.3°C 39.4°F4.1°C 86% 1.2 mph SSW1.9 kmh SSW 1.2 mph1.9 kmh 30.49 in1032.5 mb - 0.00 in0.0 mm 0.00 in0.0 mm
01:45 AM 43.6°F6.4°C 39.4°F4.1°C 85% Calm Calm 1.2 mph1.9 kmh 30.49 in1032.5 mb - 0.00 in0.0 mm 0.00 in0.0 mm
01:30 AM 44.2°F6.8°C 40.3°F4.6°C 86% Calm Calm -- 30.49 in1032.5 mb - 0.00 in0.0 mm 0.00 in0.0 mm
01:15 AM 44.4°F6.9°C 40.2°F4.6°C 85% Calm Calm -- 30.50 in1032.8 mb - 0.00 in0.0 mm 0.00 in0.0 mm
01:00 AM 43.9°F6.6°C 39.7°F4.3°C 85% Calm Calm -- 30.49 in1032.5 mb - 0.00 in0.0 mm 0.00 in0.0 mm
12:45 AM 44.3°F6.8°C 40.1°F4.5°C 85% Calm Calm -- 30.49 in1032.5 mb - 0.00 in0.0 mm 0.00 in0.0 mm
12:30 AM 44.5°F6.9°C 40.0°F4.4°C 84% Calm Calm -- 30.49 in1032.5 mb - 0.00 in0.0 mm 0.00 in0.0 mm
12:15 AM 45.0°F7.2°C 40.5°F4.7°C 84% Calm Calm 1.2 mph1.9 kmh 30.49 in1032.5 mb - 0.00 in0.0 mm 0.00 in0.0 mm
12:00 AM 45.9°F7.7°C 41.4°F5.2°C 84% 1.2 mph SSW1.9 kmh SSW 2.3 mph3.7 kmh 30.50 in1032.8 mb - 0.00 in0.0 mm 0.00 in0.0 mm